createdAt,value
2022-08-20T00:01:01.689Z,101456.31
2022-08-20T00:06:07.154Z,101461.06
2022-08-20T00:11:12.427Z,101456.72
2022-08-20T00:16:17.248Z,101454.06
2022-08-20T00:21:21.180Z,101445.94
2022-08-20T00:26:26.045Z,101455.00
2022-08-20T00:31:28.473Z,101443.38
2022-08-20T00:36:33.015Z,101445.84
2022-08-20T00:41:35.356Z,101446.94
2022-08-20T00:46:38.477Z,101437.25
2022-08-20T00:51:42.436Z,101436.22
2022-08-20T00:56:49.418Z,101452.41
2022-08-20T01:01:55.410Z,101451.00
2022-08-20T01:06:58.554Z,101460.38
2022-08-20T01:12:01.567Z,101459.19
2022-08-20T01:17:08.106Z,101456.53
2022-08-20T01:22:11.965Z,101457.78
2022-08-20T01:27:14.842Z,101461.16
2022-08-20T01:32:16.999Z,101466.13
2022-08-20T01:37:19.144Z,101461.47
2022-08-20T01:42:30.410Z,101465.81
2022-08-20T01:47:36.402Z,101460.06
2022-08-20T01:53:30.021Z,101457.47
2022-08-20T01:58:35.291Z,101457.31
2022-08-20T02:03:40.749Z,101453.63
2022-08-20T02:08:46.277Z,101461.25
2022-08-20T02:13:49.267Z,101461.75
2022-08-20T02:18:53.494Z,101457.69
2022-08-20T02:23:55.650Z,101470.06
2022-08-20T02:28:58.035Z,101473.44
2022-08-20T02:34:22.354Z,101472.47
2022-08-20T02:39:25.163Z,101485.22
2022-08-20T02:44:27.303Z,101478.09
2022-08-20T02:49:29.620Z,101475.31
2022-08-20T02:54:31.746Z,101476.03
2022-08-20T02:59:33.897Z,101472.22
2022-08-20T03:04:36.069Z,101473.44
2022-08-20T03:09:38.874Z,101477.94
2022-08-20T03:14:41.205Z,101494.66
2022-08-20T03:19:43.331Z,101495.03
2022-08-20T03:24:45.500Z,101489.97
2022-08-20T03:29:47.623Z,101493.63
2022-08-20T03:34:49.787Z,101498.31
2022-08-20T03:39:52.007Z,101500.97
2022-08-20T03:44:58.662Z,101500.34
2022-08-20T03:50:04.690Z,101500.81
2022-08-20T03:55:08.969Z,101506.22
2022-08-20T04:00:12.354Z,101500.81
2022-08-20T04:05:17.305Z,101512.47
2022-08-20T04:10:19.992Z,101510.97
2022-08-20T04:15:22.177Z,101514.09
2022-08-20T04:20:25.408Z,101516.75
2022-08-20T04:25:28.456Z,101526.91
2022-08-20T04:30:32.982Z,101532.66
2022-08-20T04:35:35.017Z,101537.34
2022-08-20T04:40:37.129Z,101526.88
2022-08-20T04:45:39.477Z,101533.03
2022-08-20T04:50:44.128Z,101543.66
2022-08-20T04:55:47.141Z,101550.13
2022-08-20T05:00:52.768Z,101562.06
2022-08-20T05:05:55.028Z,101548.84
2022-08-20T05:11:06.597Z,101562.22
2022-08-20T05:16:20.997Z,101562.34
2022-08-20T05:21:22.989Z,101565.50
2022-08-20T05:26:25.077Z,101573.81
2022-08-20T05:31:32.693Z,101575.16
2022-08-20T05:36:36.330Z,101568.91
2022-08-20T05:41:39.369Z,101563.25
2022-08-20T05:46:42.479Z,101571.78
2022-08-20T05:51:44.649Z,101577.34
2022-08-20T05:56:46.864Z,101587.94
2022-08-20T06:01:49.010Z,101579.88
2022-08-20T06:06:53.218Z,101589.03
2022-08-20T06:11:55.433Z,101590.97
2022-08-20T06:17:10.801Z,101583.06
2022-08-20T06:22:21.329Z,101584.50
2022-08-20T06:27:27.561Z,101582.47
2022-08-20T06:32:32.679Z,101583.66
2022-08-20T06:37:37.040Z,101582.22
2022-08-20T06:42:39.631Z,101596.84
2022-08-20T06:47:44.263Z,101596.75
2022-08-20T06:52:52.781Z,101590.06
2022-08-20T06:58:00.207Z,101592.44
2022-08-20T07:03:03.746Z,101592.56
2022-08-20T07:08:05.903Z,101576.34
2022-08-20T07:13:08.817Z,101587.78
2022-08-20T07:18:12.988Z,101583.50
2022-08-20T07:23:15.454Z,101581.22
2022-08-20T07:28:22.927Z,101584.44
2022-08-20T07:33:28.315Z,101588.97
2022-08-20T07:38:31.875Z,101584.59
2022-08-20T07:43:34.665Z,101591.28
2022-08-20T07:48:40.068Z,101593.31
2022-08-20T07:53:42.458Z,101609.34
2022-08-20T07:58:50.502Z,101616.50
2022-08-20T08:03:53.206Z,101616.38
2022-08-20T08:08:55.661Z,101609.28
2022-08-20T08:13:59.900Z,101601.56
2022-08-20T08:19:06.219Z,101605.91
2022-08-20T08:24:08.391Z,101614.59
2022-08-20T08:29:10.874Z,101620.16
2022-08-20T08:34:12.953Z,101627.53
2022-08-20T08:39:15.070Z,101621.16
2022-08-20T08:44:29.298Z,101626.13
2022-08-20T08:49:38.079Z,101632.97
2022-08-20T08:54:47.227Z,101641.06
2022-08-20T09:00:04.712Z,101639.47
2022-08-20T09:05:16.304Z,101636.84
2022-08-20T09:10:18.665Z,101627.31
2022-08-20T09:15:25.480Z,101628.34
2022-08-20T09:20:27.499Z,101620.22
2022-08-20T09:25:29.580Z,101630.00
2022-08-20T09:30:31.805Z,101640.63
2022-08-20T09:35:33.992Z,101642.56
2022-08-20T09:40:36.199Z,101645.78
2022-08-20T09:45:38.421Z,101647.75
2022-08-20T09:50:45.860Z,101634.97
2022-08-20T09:55:53.340Z,101634.94
2022-08-20T10:00:55.550Z,101640.25
2022-08-20T10:05:57.710Z,101647.63
2022-08-20T10:10:59.939Z,101648.59
2022-08-20T10:16:02.188Z,101653.38
2022-08-20T10:21:10.068Z,101655.31
2022-08-20T10:26:12.959Z,101661.66
2022-08-20T10:31:15.234Z,101654.28
2022-08-20T10:36:18.061Z,101654.53
2022-08-20T10:41:20.358Z,101659.38
2022-08-20T10:46:22.724Z,101661.91
2022-08-20T10:51:32.197Z,101660.13
2022-08-20T10:56:35.220Z,101645.97
2022-08-20T11:01:37.538Z,101663.16
2022-08-20T11:06:39.756Z,101658.59
2022-08-20T11:11:41.917Z,101656.81
2022-08-20T11:16:44.096Z,101653.97
2022-08-20T11:21:46.306Z,101659.09
2022-08-20T11:26:49.789Z,101657.91
2022-08-20T11:31:52.003Z,101655.81
2022-08-20T11:36:54.254Z,101668.03
2022-08-20T11:41:56.478Z,101662.78
2022-08-20T11:47:06.360Z,101656.97
2022-08-20T11:52:08.506Z,101663.69
2022-08-20T11:57:11.707Z,101656.16
2022-08-20T12:02:13.905Z,101662.00
2022-08-20T12:07:21.775Z,101663.47
2022-08-20T12:12:24.069Z,101669.06
2022-08-20T12:17:28.920Z,101652.75
2022-08-20T12:22:31.154Z,101657.63
2022-08-20T12:27:35.200Z,101656.66
2022-08-20T12:32:37.424Z,101651.84
2022-08-20T12:37:40.291Z,101650.47
2022-08-20T12:42:42.462Z,101660.94
2022-08-20T12:47:47.916Z,101663.38
2022-08-20T12:52:50.251Z,101663.44
2022-08-20T12:57:55.599Z,101652.91
2022-08-20T13:02:59.725Z,101650.59
2022-08-20T13:08:02.664Z,101652.44
2022-08-20T13:13:04.821Z,101659.53
2022-08-20T13:18:07.280Z,101647.94
2022-08-20T13:23:09.369Z,101644.25
2022-08-20T13:28:11.553Z,101636.19
2022-08-20T13:33:13.763Z,101639.19
2022-08-20T13:38:15.925Z,101637.31
2022-08-20T13:43:18.107Z,101632.16
2022-08-20T13:48:20.313Z,101623.50
2022-08-20T13:53:22.481Z,101616.59
2022-08-20T13:58:25.197Z,101622.84
2022-08-20T14:03:27.351Z,101616.06
2022-08-20T14:08:30.299Z,101613.03
2022-08-20T14:13:32.455Z,101617.34
2022-08-20T14:18:34.639Z,101615.41
2022-08-20T14:23:36.951Z,101610.47
2022-08-20T14:28:39.223Z,101608.19
2022-08-20T14:33:44.647Z,101599.03
2022-08-20T14:38:47.053Z,101604.25
2022-08-20T14:43:49.207Z,101610.44
2022-08-20T14:48:51.832Z,101608.97
2022-08-20T14:53:55.637Z,101604.34
2022-08-20T14:58:57.804Z,101609.59
2022-08-20T15:03:59.971Z,101608.84
2022-08-20T15:09:02.475Z,101618.50
2022-08-20T15:14:08.429Z,101609.88
2022-08-20T15:19:11.001Z,101616.97
2022-08-20T15:24:19.411Z,101615.84
2022-08-20T15:29:24.682Z,101628.88
2022-08-20T15:34:26.846Z,101620.94
2022-08-20T15:39:29.009Z,101609.44
2022-08-20T15:44:31.032Z,101615.44
2022-08-20T15:49:33.127Z,101618.38
2022-08-20T15:54:35.422Z,101615.56
2022-08-20T15:59:43.626Z,101610.53
2022-08-20T16:04:51.890Z,101606.84
2022-08-20T16:10:20.532Z,101607.56
2022-08-20T16:15:25.737Z,101615.16
2022-08-20T16:20:38.629Z,101613.50
2022-08-20T16:26:25.451Z,101611.50
2022-08-20T16:32:05.348Z,101608.50
2022-08-20T16:37:33.883Z,101608.56
2022-08-20T16:42:42.151Z,101616.94
2022-08-20T16:47:46.430Z,101614.00
2022-08-20T16:52:49.225Z,101615.03
2022-08-20T16:57:51.918Z,101622.38
2022-08-20T17:02:54.006Z,101621.25
2022-08-20T17:08:05.440Z,101616.94
2022-08-20T17:13:13.292Z,101629.25
2022-08-20T17:18:25.336Z,101627.91
2022-08-20T17:23:27.939Z,101628.06
2022-08-20T17:28:35.149Z,101620.97
2022-08-20T17:33:39.632Z,101619.75
2022-08-20T17:38:53.813Z,101633.91
2022-08-20T17:44:20.332Z,101633.75
2022-08-20T17:49:40.075Z,101638.56
2022-08-20T17:54:45.309Z,101644.44
2022-08-20T17:59:59.839Z,101642.84
2022-08-20T18:05:14.297Z,101633.91
2022-08-20T18:10:23.425Z,101634.13
2022-08-20T18:15:29.658Z,101625.44
2022-08-20T18:20:46.884Z,101629.97
2022-08-20T18:25:54.552Z,101634.88
2022-08-20T18:31:02.524Z,101634.41
2022-08-20T18:36:12.987Z,101618.38
2022-08-20T18:41:46.376Z,101636.28
2022-08-20T18:46:55.140Z,101640.03
2022-08-20T18:52:07.800Z,101654.75
2022-08-20T18:57:41.316Z,101645.88
2022-08-20T19:02:56.172Z,101650.13
2022-08-20T19:08:00.792Z,101657.88
2022-08-20T19:13:21.547Z,101660.78
2022-08-20T19:18:32.941Z,101657.56
2022-08-20T19:23:39.539Z,101662.16
2022-08-20T19:28:45.089Z,101670.66
2022-08-20T19:33:48.085Z,101662.13
2022-08-20T19:39:01.479Z,101665.13
2022-08-20T19:44:03.735Z,101670.88
2022-08-20T19:49:24.074Z,101673.28
2022-08-20T19:54:28.272Z,101680.50
2022-08-20T19:59:30.512Z,101683.63
2022-08-20T20:04:54.996Z,101691.31
2022-08-20T20:09:59.974Z,101679.88
2022-08-20T20:15:05.806Z,101687.56
2022-08-20T20:20:23.451Z,101692.84
2022-08-20T20:25:28.546Z,101690.41
2022-08-20T20:30:33.492Z,101684.63
2022-08-20T20:35:36.130Z,101682.09
2022-08-20T20:40:49.610Z,101683.06
2022-08-20T20:45:57.396Z,101669.00
2022-08-20T20:50:59.515Z,101665.31
2022-08-20T20:56:02.179Z,101667.28
2022-08-20T21:01:04.725Z,101668.69
2022-08-20T21:06:07.309Z,101668.84
2022-08-20T21:11:11.692Z,101670.59
2022-08-20T21:16:13.875Z,101679.06
2022-08-20T21:21:16.025Z,101691.88
2022-08-20T21:26:18.457Z,101693.50
2022-08-20T21:31:20.676Z,101689.31
2022-08-20T21:36:22.856Z,101681.50
2022-08-20T21:41:30.240Z,101687.19
2022-08-20T21:46:32.581Z,101679.47
2022-08-20T21:51:34.760Z,101683.69
2022-08-20T21:56:37.959Z,101682.75
2022-08-20T22:01:40.109Z,101687.63
2022-08-20T22:06:42.431Z,101681.47
2022-08-20T22:11:44.750Z,101672.97
2022-08-20T22:16:46.925Z,101669.56
2022-08-20T22:21:49.447Z,101673.59
2022-08-20T22:26:51.650Z,101674.53
2022-08-20T22:31:54.218Z,101673.50
2022-08-20T22:36:58.323Z,101674.16
2022-08-20T22:42:00.515Z,101666.97
2022-08-20T22:47:07.813Z,101665.91
2022-08-20T22:52:11.783Z,101655.13
2022-08-20T22:57:14.528Z,101657.16
2022-08-20T23:02:18.359Z,101647.94
2022-08-20T23:07:20.735Z,101641.50
2022-08-20T23:12:23.027Z,101657.59
2022-08-20T23:17:25.700Z,101648.16
2022-08-20T23:22:27.964Z,101643.38
2022-08-20T23:27:30.531Z,101651.09
2022-08-20T23:32:32.735Z,101643.72
2022-08-20T23:37:40.234Z,101643.38
2022-08-20T23:42:42.549Z,101639.84
2022-08-20T23:47:45.178Z,101639.22
2022-08-20T23:52:47.935Z,101640.72
2022-08-20T23:57:51.260Z,101640.50
